WIF8F ENCN-ENBR
Flight info
| Callsign | WIF8F |
|---|---|
| Flight time | 0h 34m |
| Altitude | 24000 |
| Route | BEDIK DCT BADAB |
| Aircraft | DH8B/M-SDFGR/S |
Departure
| Time | 2026-04-22 09:55 |
|---|---|
| Airport | Kristiansand Airport (ENCN) |
Arrival
| Time | 2026-04-22 10:29 |
|---|---|
| Airport | Bergen Airport, Flesland (ENBR) |
| Time | Latitude | Longitude | Altitude | Speed | Heading |
|---|---|---|---|---|---|
| 2026-04-22 09:48 | 58.20216 | 8.07524 | 61 ft | 0 kts | 302° |
| 2026-04-22 09:52 | 58.20211 | 8.07540 | 63 ft | 2 kts | 302° |
| 2026-04-22 09:52 | 58.20203 | 8.07566 | 56 ft | 2 kts | 301° |
| 2026-04-22 09:52 | 58.20195 | 8.07590 | 57 ft | 1 kts | 301° |
| 2026-04-22 09:53 | 58.20195 | 8.07591 | 58 ft | 1 kts | 301° |
| 2026-04-22 09:53 | 58.20179 | 8.07567 | 59 ft | 6 kts | 198° |
| 2026-04-22 09:53 | 58.20130 | 8.07532 | 59 ft | 9 kts | 210° |
| 2026-04-22 09:53 | 58.20060 | 8.07451 | 61 ft | 14 kts | 213° |
| 2026-04-22 09:54 | 58.19956 | 8.07357 | 63 ft | 19 kts | 176° |
| 2026-04-22 09:54 | 58.19817 | 8.07436 | 60 ft | 22 kts | 164° |
| 2026-04-22 09:54 | 58.19707 | 8.07583 | 64 ft | 17 kts | 65° |
| 2026-04-22 09:54 | 58.19981 | 8.07955 | 60 ft | 104 kts | 34° |
| 2026-04-22 09:55 | 58.20788 | 8.09033 | 120 ft | 170 kts | 35° |
| 2026-04-22 09:55 | 58.21774 | 8.10365 | 883 ft | 168 kts | 36° |
| 2026-04-22 09:55 | 58.22700 | 8.11737 | 1710 ft | 175 kts | 49° |
| 2026-04-22 09:55 | 58.23132 | 8.13936 | 2253 ft | 192 kts | 87° |
| 2026-04-22 09:56 | 58.23361 | 8.16434 | 2938 ft | 193 kts | 59° |
| 2026-04-22 09:56 | 58.24301 | 8.18127 | 3651 ft | 187 kts | 17° |
| 2026-04-22 09:56 | 58.25550 | 8.18172 | 4369 ft | 182 kts | 336° |
| 2026-04-22 09:56 | 58.26466 | 8.16580 | 5120 ft | 183 kts | 298° |
| 2026-04-22 09:57 | 58.26883 | 8.14284 | 5856 ft | 186 kts | 284° |
| 2026-04-22 09:57 | 58.27264 | 8.12001 | 6581 ft | 184 kts | 304° |
| 2026-04-22 09:57 | 58.28107 | 8.10180 | 7306 ft | 184 kts | 317° |
| 2026-04-22 09:57 | 58.29018 | 8.08433 | 8039 ft | 187 kts | 314° |
| 2026-04-22 09:58 | 58.29892 | 8.06562 | 8774 ft | 190 kts | 313° |
| 2026-04-22 09:58 | 58.30757 | 8.04642 | 9545 ft | 192 kts | 312° |
| 2026-04-22 09:58 | 58.31624 | 8.02704 | 10300 ft | 195 kts | 313° |
| 2026-04-22 09:58 | 58.32513 | 8.00721 | 11011 ft | 197 kts | 313° |
| 2026-04-22 09:59 | 58.33407 | 7.98726 | 11745 ft | 199 kts | 313° |
| 2026-04-22 09:59 | 58.34311 | 7.96710 | 12482 ft | 202 kts | 313° |
| 2026-04-22 09:59 | 58.35231 | 7.94661 | 13237 ft | 205 kts | 313° |
| 2026-04-22 09:59 | 58.36164 | 7.92581 | 14011 ft | 207 kts | 313° |
| 2026-04-22 10:00 | 58.37107 | 7.90479 | 14725 ft | 210 kts | 313° |
| 2026-04-22 10:00 | 58.38059 | 7.88346 | 15449 ft | 212 kts | 313° |
| 2026-04-22 10:00 | 58.39007 | 7.86221 | 16188 ft | 214 kts | 313° |
| 2026-04-22 10:00 | 58.39976 | 7.84044 | 16951 ft | 216 kts | 313° |
| 2026-04-22 10:01 | 58.40950 | 7.81851 | 17732 ft | 217 kts | 314° |
| 2026-04-22 10:01 | 58.41930 | 7.79648 | 18532 ft | 219 kts | 314° |
| 2026-04-22 10:01 | 58.42919 | 7.77421 | 19237 ft | 221 kts | 314° |
| 2026-04-22 10:01 | 58.43919 | 7.75161 | 19946 ft | 224 kts | 314° |
| 2026-04-22 10:02 | 58.44932 | 7.72871 | 20666 ft | 228 kts | 314° |
| 2026-04-22 10:02 | 58.45952 | 7.70562 | 21390 ft | 232 kts | 314° |
| 2026-04-22 10:02 | 58.47003 | 7.68175 | 22140 ft | 236 kts | 314° |
| 2026-04-22 10:02 | 58.48071 | 7.65742 | 22910 ft | 241 kts | 314° |
| 2026-04-22 10:03 | 58.49156 | 7.63269 | 23696 ft | 245 kts | 314° |
| 2026-04-22 10:03 | 58.50279 | 7.60734 | 24272 ft | 257 kts | 315° |
| 2026-04-22 10:03 | 58.51511 | 7.57982 | 24339 ft | 286 kts | 314° |
| 2026-04-22 10:03 | 58.52831 | 7.55006 | 24363 ft | 307 kts | 314° |
| 2026-04-22 10:04 | 58.54247 | 7.51804 | 24398 ft | 322 kts | 314° |
| 2026-04-22 10:04 | 58.55715 | 7.48478 | 24461 ft | 330 kts | 313° |
| 2026-04-22 10:04 | 58.57216 | 7.45081 | 24518 ft | 336 kts | 314° |
| 2026-04-22 10:04 | 58.58725 | 7.41666 | 24562 ft | 339 kts | 313° |
| 2026-04-22 10:05 | 58.60249 | 7.38209 | 24599 ft | 340 kts | 313° |
| 2026-04-22 10:05 | 58.61779 | 7.34725 | 24605 ft | 340 kts | 313° |
| 2026-04-22 10:05 | 58.63298 | 7.31243 | 24594 ft | 341 kts | 313° |
| 2026-04-22 10:05 | 58.64819 | 7.27747 | 24579 ft | 340 kts | 313° |
| 2026-04-22 10:06 | 58.66324 | 7.24214 | 24538 ft | 341 kts | 308° |
| 2026-04-22 10:06 | 58.67552 | 7.20364 | 24489 ft | 343 kts | 302° |
| 2026-04-22 10:06 | 58.68706 | 7.16330 | 24435 ft | 343 kts | 303° |
| 2026-04-22 10:06 | 58.69992 | 7.12483 | 24373 ft | 340 kts | 308° |
| 2026-04-22 10:07 | 58.71394 | 7.08792 | 24361 ft | 340 kts | 309° |
| 2026-04-22 10:07 | 58.72746 | 7.05116 | 24373 ft | 340 kts | 307° |
| 2026-04-22 10:07 | 58.74052 | 7.01295 | 24370 ft | 341 kts | 305° |
| 2026-04-22 10:07 | 58.75324 | 6.97434 | 24368 ft | 341 kts | 306° |
| 2026-04-22 10:08 | 58.76617 | 6.93601 | 24354 ft | 338 kts | 306° |
| 2026-04-22 10:08 | 58.77890 | 6.89880 | 24360 ft | 336 kts | 306° |
| 2026-04-22 10:08 | 58.79180 | 6.86129 | 24363 ft | 336 kts | 306° |
| 2026-04-22 10:08 | 58.80474 | 6.82375 | 24372 ft | 336 kts | 306° |
| 2026-04-22 10:09 | 58.81763 | 6.78617 | 24375 ft | 336 kts | 306° |
| 2026-04-22 10:09 | 58.83041 | 6.74822 | 24371 ft | 336 kts | 306° |
| 2026-04-22 10:09 | 58.84312 | 6.71031 | 24375 ft | 336 kts | 306° |
| 2026-04-22 10:09 | 58.85591 | 6.67259 | 24375 ft | 336 kts | 306° |
| 2026-04-22 10:10 | 58.86884 | 6.63450 | 24375 ft | 341 kts | 306° |
| 2026-04-22 10:10 | 58.88165 | 6.59637 | 24380 ft | 342 kts | 305° |
| 2026-04-22 10:10 | 58.89454 | 6.55771 | 24400 ft | 342 kts | 305° |
| 2026-04-22 10:10 | 58.90753 | 6.51906 | 24407 ft | 342 kts | 306° |
| 2026-04-22 10:11 | 58.92057 | 6.48038 | 24401 ft | 342 kts | 306° |
| 2026-04-22 10:11 | 58.93353 | 6.44158 | 24399 ft | 342 kts | 305° |
| 2026-04-22 10:11 | 58.94637 | 6.40287 | 24407 ft | 342 kts | 305° |
| 2026-04-22 10:11 | 58.95911 | 6.36464 | 24403 ft | 342 kts | 306° |
| 2026-04-22 10:12 | 58.97205 | 6.32600 | 24423 ft | 339 kts | 305° |
| 2026-04-22 10:12 | 58.98481 | 6.28767 | 24420 ft | 338 kts | 305° |
| 2026-04-22 10:12 | 58.99750 | 6.24924 | 24425 ft | 338 kts | 304° |
| 2026-04-22 10:12 | 59.01020 | 6.21075 | 24428 ft | 338 kts | 305° |
| 2026-04-22 10:13 | 59.02294 | 6.17232 | 24430 ft | 338 kts | 305° |
| 2026-04-22 10:13 | 59.03570 | 6.13381 | 24437 ft | 338 kts | 304° |
| 2026-04-22 10:13 | 59.04838 | 6.09522 | 24437 ft | 338 kts | 304° |
| 2026-04-22 10:13 | 59.06088 | 6.05714 | 24433 ft | 338 kts | 306° |
| 2026-04-22 10:14 | 59.07652 | 6.02353 | 24413 ft | 334 kts | 326° |
| 2026-04-22 10:14 | 59.09714 | 6.00415 | 24406 ft | 328 kts | 348° |
| 2026-04-22 10:14 | 59.11960 | 6.00115 | 24419 ft | 324 kts | 5° |
| 2026-04-22 10:14 | 59.13462 | 6.00244 | 24423 ft | 324 kts | 1° |
| 2026-04-22 10:15 | 59.16399 | 5.99033 | 24421 ft | 329 kts | 342° |
| 2026-04-22 10:15 | 59.17826 | 5.98013 | 24428 ft | 329 kts | 343° |
| 2026-04-22 10:15 | 59.20058 | 5.96920 | 24427 ft | 331 kts | 354° |
| 2026-04-22 10:15 | 59.22350 | 5.96389 | 24430 ft | 331 kts | 357° |
| 2026-04-22 10:16 | 59.24642 | 5.95810 | 24425 ft | 332 kts | 354° |
| 2026-04-22 10:16 | 59.26919 | 5.94960 | 24423 ft | 333 kts | 351° |
| 2026-04-22 10:16 | 59.29190 | 5.93974 | 24415 ft | 334 kts | 350° |
| 2026-04-22 10:16 | 59.31460 | 5.93002 | 24437 ft | 333 kts | 351° |
| 2026-04-22 10:17 | 59.33705 | 5.92155 | 24436 ft | 333 kts | 353° |
| 2026-04-22 10:17 | 59.35983 | 5.91344 | 24431 ft | 333 kts | 352° |
| 2026-04-22 10:17 | 59.38264 | 5.90455 | 24426 ft | 333 kts | 351° |
| 2026-04-22 10:17 | 59.40533 | 5.89532 | 24437 ft | 333 kts | 351° |
| 2026-04-22 10:18 | 59.42818 | 5.88657 | 24438 ft | 333 kts | 352° |
| 2026-04-22 10:18 | 59.45074 | 5.88072 | 24431 ft | 331 kts | 359° |
| 2026-04-22 10:18 | 59.47372 | 5.87921 | 24412 ft | 331 kts | 2° |
| 2026-04-22 10:18 | 59.49704 | 5.87716 | 24412 ft | 337 kts | 360° |
| 2026-04-22 10:19 | 59.52050 | 5.87268 | 24414 ft | 338 kts | 357° |
| 2026-04-22 10:19 | 59.54390 | 5.86750 | 24412 ft | 338 kts | 358° |
| 2026-04-22 10:19 | 59.56727 | 5.86304 | 24421 ft | 337 kts | 359° |
| 2026-04-22 10:19 | 59.59071 | 5.85938 | 24423 ft | 337 kts | 360° |
| 2026-04-22 10:20 | 59.61384 | 5.85597 | 24426 ft | 337 kts | 359° |
| 2026-04-22 10:20 | 59.63726 | 5.85214 | 24422 ft | 337 kts | 359° |
| 2026-04-22 10:20 | 59.66071 | 5.84811 | 24364 ft | 338 kts | 359° |
| 2026-04-22 10:20 | 59.68370 | 5.84414 | 23706 ft | 325 kts | 359° |
| 2026-04-22 10:21 | 59.70599 | 5.84049 | 22881 ft | 313 kts | 358° |
| 2026-04-22 10:21 | 59.72706 | 5.83550 | 22076 ft | 306 kts | 347° |
| 2026-04-22 10:21 | 59.74593 | 5.81668 | 21267 ft | 304 kts | 322° |
| 2026-04-22 10:21 | 59.76139 | 5.78853 | 20502 ft | 296 kts | 320° |
| 2026-04-22 10:22 | 59.78890 | 5.74854 | 19266 ft | 284 kts | 329° |
| 2026-04-22 10:22 | 59.85045 | 5.66098 | 16139 ft | 260 kts | 324° |
| 2026-04-22 10:22 | 59.91353 | 5.56853 | 12965 ft | 260 kts | 324° |
| 2026-04-22 10:22 | 59.94451 | 5.52312 | 11319 ft | 237 kts | 324° |
| 2026-04-22 10:23 | 59.96996 | 5.48544 | 9773 ft | 219 kts | 324° |
| 2026-04-22 10:23 | 59.99365 | 5.45051 | 8411 ft | 201 kts | 324° |
| 2026-04-22 10:23 | 60.01529 | 5.41846 | 7326 ft | 187 kts | 324° |
| 2026-04-22 10:23 | 60.03530 | 5.38871 | 6338 ft | 183 kts | 324° |
| 2026-04-22 10:24 | 60.05702 | 5.35640 | 5394 ft | 201 kts | 324° |
| 2026-04-22 10:24 | 60.07015 | 5.33683 | 4869 ft | 203 kts | 324° |
| 2026-04-22 10:24 | 60.08161 | 5.31981 | 4411 ft | 205 kts | 324° |
| 2026-04-22 10:24 | 60.09297 | 5.30255 | 3985 ft | 204 kts | 323° |
| 2026-04-22 10:25 | 60.10426 | 5.28666 | 3763 ft | 195 kts | 332° |
| 2026-04-22 10:25 | 60.11695 | 5.27684 | 3531 ft | 200 kts | 347° |
| 2026-04-22 10:25 | 60.13052 | 5.27198 | 3263 ft | 196 kts | 351° |
| 2026-04-22 10:25 | 60.14388 | 5.26752 | 2994 ft | 193 kts | 350° |
| 2026-04-22 10:26 | 60.15706 | 5.26302 | 2730 ft | 189 kts | 350° |
| 2026-04-22 10:26 | 60.16988 | 5.25871 | 2464 ft | 179 kts | 351° |
| 2026-04-22 10:26 | 60.18135 | 5.25488 | 2225 ft | 161 kts | 351° |
| 2026-04-22 10:26 | 60.19199 | 5.25134 | 2000 ft | 150 kts | 351° |
| 2026-04-22 10:27 | 60.20202 | 5.24800 | 1780 ft | 143 kts | 351° |
| 2026-04-22 10:27 | 60.21153 | 5.24488 | 1597 ft | 135 kts | 349° |
| 2026-04-22 10:27 | 60.22068 | 5.24188 | 1345 ft | 132 kts | 349° |
| 2026-04-22 10:27 | 60.22961 | 5.23897 | 1092 ft | 129 kts | 350° |
| 2026-04-22 10:28 | 60.23805 | 5.23609 | 1032 ft | 120 kts | 349° |
| 2026-04-22 10:28 | 60.24619 | 5.23342 | 913 ft | 120 kts | 350° |
| 2026-04-22 10:28 | 60.25465 | 5.23062 | 749 ft | 125 kts | 348° |
| 2026-04-22 10:28 | 60.26344 | 5.22768 | 583 ft | 129 kts | 349° |
| 2026-04-22 10:29 | 60.27246 | 5.22483 | 365 ft | 133 kts | 350° |
| 2026-04-22 10:29 | 60.28148 | 5.22197 | 215 ft | 126 kts | 350° |
| 2026-04-22 10:29 | 60.28927 | 5.21943 | 160 ft | 86 kts | 355° |
| 2026-04-22 10:29 | 60.29299 | 5.21828 | 152 ft | 27 kts | 349° |
| 2026-04-22 10:30 | 60.29381 | 5.21918 | 151 ft | 17 kts | 84° |
| 2026-04-22 10:30 | 60.29375 | 5.22118 | 157 ft | 14 kts | 154° |
| 2026-04-22 10:30 | 60.29273 | 5.22160 | 162 ft | 16 kts | 170° |
| 2026-04-22 10:30 | 60.29160 | 5.22199 | 167 ft | 17 kts | 171° |
| 2026-04-22 10:31 | 60.29065 | 5.22323 | 173 ft | 18 kts | 133° |
| 2026-04-22 10:31 | 60.29043 | 5.22560 | 172 ft | 17 kts | 81° |
| 2026-04-22 10:31 | 60.29043 | 5.22782 | 172 ft | 14 kts | 107° |
| 2026-04-22 10:31 | 60.29012 | 5.22831 | 171 ft | 6 kts | 209° |
| 2026-04-22 10:32 | 60.28994 | 5.22809 | 171 ft | 0 kts | 213° |